createdAt,value
2022-09-16T00:01:54.240Z,12.5
2022-09-16T00:11:56.783Z,12.4
2022-09-16T00:21:58.905Z,12.3
2022-09-16T00:32:01.061Z,12.2
2022-09-16T00:42:02.945Z,12.1
2022-09-16T00:52:04.721Z,12
2022-09-16T01:02:06.804Z,12
2022-09-16T01:12:08.880Z,11.9
2022-09-16T01:22:11.293Z,11.9
2022-09-16T01:32:13.738Z,11.9
2022-09-16T01:42:16.129Z,11.9
2022-09-16T01:52:18.128Z,11.9
2022-09-16T02:22:24.575Z,12
2022-09-16T02:32:26.894Z,11.9
2022-09-16T02:42:28.989Z,11.8
2022-09-16T02:52:31.147Z,11.9
2022-09-16T03:12:35.706Z,12
2022-09-16T03:32:39.982Z,11.9
2022-09-16T03:42:41.679Z,11.9
2022-09-16T03:52:43.542Z,11.9
2022-09-16T04:12:47.795Z,11.8
2022-09-16T04:22:49.685Z,11.7
2022-09-16T04:32:52.026Z,11.7
2022-09-16T04:42:53.729Z,11.7
2022-09-16T04:52:56.360Z,11.6
2022-09-16T05:02:58.669Z,11.6
2022-09-16T05:13:01.193Z,11.6
2022-09-16T05:33:05.879Z,11.5
2022-09-16T05:53:09.707Z,10.9
2022-09-16T06:03:11.604Z,11
2022-09-16T06:13:13.472Z,11.5
2022-09-16T06:23:15.975Z,11.6
2022-09-16T06:23:22.868Z,11.6
2022-09-16T06:33:25.483Z,11.7
2022-09-16T06:53:29.810Z,11.9
2022-09-16T07:03:31.998Z,11.9
2022-09-16T07:13:34.297Z,11.9
2022-09-16T07:23:36.538Z,12
2022-09-16T07:53:42.130Z,13
2022-09-16T08:13:46.411Z,13.5
2022-09-16T08:23:48.229Z,13.6
2022-09-16T08:43:53.005Z,13.8
2022-09-16T09:03:57.851Z,14.4
2022-09-16T09:13:59.896Z,14.3
2022-09-16T09:34:04.976Z,14.2
2022-09-16T09:44:06.809Z,14.3
2022-09-16T09:54:09.204Z,14.4
2022-09-16T10:04:11.654Z,14.7
2022-09-16T10:14:14.209Z,14.6
2022-09-16T10:44:21.150Z,10.3
2022-09-16T10:54:23.846Z,11.4
2022-09-16T11:04:26.274Z,12
2022-09-16T11:14:27.985Z,11.9
2022-09-16T11:54:36.666Z,11
2022-09-16T12:04:39.062Z,11
2022-09-16T12:24:43.353Z,10.5
2022-09-16T12:44:47.754Z,10.6
2022-09-16T12:55:04.335Z,11.2
2022-09-16T13:14:54.586Z,13.4
2022-09-16T13:34:58.571Z,13
2022-09-16T14:05:04.645Z,14.3
2022-09-16T14:45:12.661Z,15.3
2022-09-16T14:55:14.309Z,15.5
2022-09-16T15:05:16.526Z,15.5
2022-09-16T15:45:25.002Z,14.3
2022-09-16T15:55:26.999Z,13.8
2022-09-16T16:25:32.835Z,13.7
2022-09-16T16:35:34.928Z,13.4
2022-09-16T16:45:37.123Z,13.4
2022-09-16T17:15:43.056Z,12.6
2022-09-16T17:35:47.214Z,12.3
2022-09-16T18:25:56.970Z,11.6
2022-09-16T18:35:58.622Z,11.6
2022-09-16T18:46:01.150Z,11.5
2022-09-16T18:56:03.501Z,11.5
2022-09-16T19:06:05.414Z,11.6
2022-09-16T19:16:07.587Z,11.6
2022-09-16T19:26:10.163Z,11.7
2022-09-16T19:56:16.881Z,11.4
2022-09-16T20:06:18.588Z,11.3
2022-09-16T20:16:20.575Z,11.4
2022-09-16T20:36:24.595Z,11
2022-09-16T20:46:27.233Z,11
2022-09-16T20:56:37.314Z,10.9
2022-09-16T21:06:31.537Z,11
2022-09-16T21:16:33.361Z,10.9
2022-09-16T21:26:35.773Z,10.8
2022-09-16T21:36:37.714Z,10.8
2022-09-16T21:46:40.333Z,10.8
2022-09-16T21:56:42.882Z,10.8
2022-09-16T22:16:47.301Z,10.5
2022-09-16T22:36:51.384Z,10.2
2022-09-16T22:46:53.659Z,10.1
2022-09-16T22:56:55.457Z,10
2022-09-16T23:06:57.565Z,9.9
2022-09-16T23:16:59.372Z,9.9
2022-09-16T23:27:01.740Z,9.9
2022-09-16T23:37:04.305Z,9.9
2022-09-16T23:47:06.030Z,9.9
2022-09-16T23:57:08.180Z,9.8
